sensor_id;sensor_type;location;lat;lon;timestamp;pressure;altitude;pressure_sealevel;temperature;humidity
37170;BME280;23062;13.952;100.608;2023-01-27T00:00:41;1012.27;;;27.38;53.87
37170;BME280;23062;13.952;100.608;2023-01-27T00:05:07;1012.33;;;27.38;53.73
37170;BME280;23062;13.952;100.608;2023-01-27T00:09:32;1012.36;;;27.38;53.64
37170;BME280;23062;13.952;100.608;2023-01-27T00:13:58;1012.45;;;27.36;53.65
37170;BME280;23062;13.952;100.608;2023-01-27T00:18:30;1012.52;;;27.35;53.90
37170;BME280;23062;13.952;100.608;2023-01-27T00:22:55;1012.60;;;27.37;54.13
37170;BME280;23062;13.952;100.608;2023-01-27T00:27:38;1012.69;;;27.38;54.20
37170;BME280;23062;13.952;100.608;2023-01-27T00:32:03;1012.73;;;27.38;54.38
37170;BME280;23062;13.952;100.608;2023-01-27T00:36:49;1012.79;;;27.41;54.41
37170;BME280;23062;13.952;100.608;2023-01-27T00:41:14;1012.85;;;27.41;54.76
37170;BME280;23062;13.952;100.608;2023-01-27T00:45:41;1012.96;;;27.42;54.71
37170;BME280;23062;13.952;100.608;2023-01-27T00:50:14;1013.01;;;27.44;54.64
37170;BME280;23062;13.952;100.608;2023-01-27T00:54:38;1013.14;;;27.35;54.90
37170;BME280;23062;13.952;100.608;2023-01-27T00:59:04;1013.20;;;27.42;54.96
37170;BME280;23062;13.952;100.608;2023-01-27T01:03:30;1013.25;;;27.45;54.98
37170;BME280;23062;13.952;100.608;2023-01-27T01:07:55;1013.29;;;27.48;54.53
37170;BME280;23062;13.952;100.608;2023-01-27T01:12:22;1013.37;;;27.52;54.95
37170;BME280;23062;13.952;100.608;2023-01-27T01:16:47;1013.45;;;27.55;54.21
37170;BME280;23062;13.952;100.608;2023-01-27T01:21:13;1013.50;;;27.61;54.58
37170;BME280;23062;13.952;100.608;2023-01-27T01:25:38;1013.57;;;27.63;54.07
37170;BME280;23062;13.952;100.608;2023-01-27T01:30:03;1013.68;;;27.64;52.96
37170;BME280;23062;13.952;100.608;2023-01-27T01:34:28;1013.73;;;27.66;52.87
37170;BME280;23062;13.952;100.608;2023-01-27T01:38:57;1013.76;;;27.70;52.63
37170;BME280;23062;13.952;100.608;2023-01-27T01:43:24;1013.80;;;27.73;52.61
37170;BME280;23062;13.952;100.608;2023-01-27T01:47:50;1013.88;;;27.72;52.22
37170;BME280;23062;13.952;100.608;2023-01-27T01:52:17;1013.89;;;27.69;52.25
37170;BME280;23062;13.952;100.608;2023-01-27T01:56:59;1013.96;;;27.72;52.29
37170;BME280;23062;13.952;100.608;2023-01-27T02:01:23;1013.98;;;27.71;49.00
37170;BME280;23062;13.952;100.608;2023-01-27T02:05:51;1013.98;;;27.71;48.80
37170;BME280;23062;13.952;100.608;2023-01-27T02:10:16;1014.01;;;27.75;48.78
37170;BME280;23062;13.952;100.608;2023-01-27T02:14:43;1014.02;;;27.87;48.58
37170;BME280;23062;13.952;100.608;2023-01-27T02:19:10;1013.98;;;27.94;48.68
37170;BME280;23062;13.952;100.608;2023-01-27T02:23:43;1013.99;;;27.96;48.75
37170;BME280;23062;13.952;100.608;2023-01-27T02:28:07;1013.94;;;27.99;47.87
37170;BME280;23062;13.952;100.608;2023-01-27T02:32:36;1013.91;;;28.07;49.36
37170;BME280;23062;13.952;100.608;2023-01-27T02:37:03;1013.83;;;28.10;48.96
37170;BME280;23062;13.952;100.608;2023-01-27T02:45:57;1013.86;;;28.17;49.12
37170;BME280;23062;13.952;100.608;2023-01-27T02:50:24;1013.87;;;28.22;49.28
37170;BME280;23062;13.952;100.608;2023-01-27T02:54:49;1013.86;;;28.23;49.44
37170;BME280;23062;13.952;100.608;2023-01-27T02:59:14;1013.80;;;28.22;47.28
37170;BME280;23062;13.952;100.608;2023-01-27T03:03:39;1013.77;;;28.25;47.96
37170;BME280;23062;13.952;100.608;2023-01-27T03:08:08;1013.74;;;28.29;47.16
37170;BME280;23062;13.952;100.608;2023-01-27T03:12:34;1013.69;;;28.34;46.78
37170;BME280;23062;13.952;100.608;2023-01-27T03:16:59;1013.67;;;28.38;46.73
37170;BME280;23062;13.952;100.608;2023-01-27T03:21:45;1013.61;;;28.43;46.79
37170;BME280;23062;13.952;100.608;2023-01-27T03:26:11;1013.59;;;28.45;46.82
37170;BME280;23062;13.952;100.608;2023-01-27T03:30:36;1013.57;;;28.49;46.83
37170;BME280;23062;13.952;100.608;2023-01-27T03:35:01;1013.51;;;28.49;47.48
37170;BME280;23062;13.952;100.608;2023-01-27T03:39:28;1013.50;;;28.53;47.52
37170;BME280;23062;13.952;100.608;2023-01-27T03:44:11;1013.43;;;28.55;47.09
37170;BME280;23062;13.952;100.608;2023-01-27T03:49:01;1013.33;;;28.72;45.06
37170;BME280;23062;13.952;100.608;2023-01-27T03:53:26;1013.27;;;28.72;45.38
37170;BME280;23062;13.952;100.608;2023-01-27T03:57:51;1013.19;;;28.69;45.85
37170;BME280;23062;13.952;100.608;2023-01-27T04:02:18;1013.15;;;28.69;46.47
37170;BME280;23062;13.952;100.608;2023-01-27T04:07:02;1013.02;;;28.69;46.38
37170;BME280;23062;13.952;100.608;2023-01-27T04:11:27;1012.96;;;28.69;45.79
37170;BME280;23062;13.952;100.608;2023-01-27T04:16:12;1012.84;;;28.79;45.72
37170;BME280;23062;13.952;100.608;2023-01-27T04:20:37;1012.77;;;28.75;45.95
37170;BME280;23062;13.952;100.608;2023-01-27T04:25:02;1012.62;;;28.96;44.56
37170;BME280;23062;13.952;100.608;2023-01-27T04:29:30;1012.58;;;28.93;44.59
37170;BME280;23062;13.952;100.608;2023-01-27T04:33:55;1012.53;;;29.01;44.46
37170;BME280;23062;13.952;100.608;2023-01-27T04:38:20;1012.41;;;28.95;45.09
37170;BME280;23062;13.952;100.608;2023-01-27T04:42:45;1012.32;;;28.95;45.56
37170;BME280;23062;13.952;100.608;2023-01-27T04:47:10;1012.20;;;28.95;45.96
37170;BME280;23062;13.952;100.608;2023-01-27T04:51:35;1012.12;;;28.93;46.06
37170;BME280;23062;13.952;100.608;2023-01-27T04:56:05;1012.03;;;28.98;45.16
37170;BME280;23062;13.952;100.608;2023-01-27T05:00:32;1011.95;;;29.22;44.58
37170;BME280;23062;13.952;100.608;2023-01-27T05:04:57;1011.80;;;29.23;44.61
37170;BME280;23062;13.952;100.608;2023-01-27T05:09:26;1011.71;;;29.29;44.09
37170;BME280;23062;13.952;100.608;2023-01-27T05:13:51;1011.64;;;29.60;42.73
37170;BME280;23062;13.952;100.608;2023-01-27T05:18:16;1011.55;;;29.38;43.58
37170;BME280;23062;13.952;100.608;2023-01-27T05:22:42;1011.47;;;29.26;44.41
37170;BME280;23062;13.952;100.608;2023-01-27T05:27:07;1011.34;;;29.37;42.88
37170;BME280;23062;13.952;100.608;2023-01-27T05:31:32;1011.24;;;29.35;43.45
37170;BME280;23062;13.952;100.608;2023-01-27T05:36:01;1011.10;;;29.32;43.32
37170;BME280;23062;13.952;100.608;2023-01-27T05:40:27;1011.02;;;29.34;43.37
37170;BME280;23062;13.952;100.608;2023-01-27T05:44:52;1010.90;;;29.30;43.08
37170;BME280;23062;13.952;100.608;2023-01-27T05:49:17;1010.83;;;29.37;42.70
37170;BME280;23062;13.952;100.608;2023-01-27T05:53:42;1010.77;;;29.42;42.56
37170;BME280;23062;13.952;100.608;2023-01-27T05:58:07;1010.72;;;29.35;43.05
37170;BME280;23062;13.952;100.608;2023-01-27T06:02:32;1010.66;;;29.57;41.80
37170;BME280;23062;13.952;100.608;2023-01-27T06:06:57;1010.55;;;29.51;41.99
37170;BME280;23062;13.952;100.608;2023-01-27T06:11:23;1010.40;;;29.47;42.58
37170;BME280;23062;13.952;100.608;2023-01-27T06:15:49;1010.33;;;29.41;42.66
37170;BME280;23062;13.952;100.608;2023-01-27T06:20:15;1010.16;;;29.41;42.69
37170;BME280;23062;13.952;100.608;2023-01-27T06:24:43;1010.20;;;29.40;42.52
37170;BME280;23062;13.952;100.608;2023-01-27T06:29:08;1010.02;;;29.40;42.59
37170;BME280;23062;13.952;100.608;2023-01-27T06:33:33;1009.93;;;29.42;42.40
37170;BME280;23062;13.952;100.608;2023-01-27T06:37:58;1009.96;;;29.41;42.45
37170;BME280;23062;13.952;100.608;2023-01-27T06:42:24;1009.79;;;29.47;41.73
37170;BME280;23062;13.952;100.608;2023-01-27T06:46:49;1009.80;;;29.49;41.48
37170;BME280;23062;13.952;100.608;2023-01-27T06:51:18;1009.66;;;29.52;41.42
37170;BME280;23062;13.952;100.608;2023-01-27T06:55:43;1009.52;;;29.52;41.42
37170;BME280;23062;13.952;100.608;2023-01-27T07:00:11;1009.46;;;29.52;41.15
37170;BME280;23062;13.952;100.608;2023-01-27T07:04:36;1009.40;;;29.63;40.06
37170;BME280;23062;13.952;100.608;2023-01-27T07:09:01;1009.32;;;29.63;40.08
37170;BME280;23062;13.952;100.608;2023-01-27T07:13:28;1009.33;;;29.59;40.11
37170;BME280;23062;13.952;100.608;2023-01-27T07:17:54;1009.31;;;29.57;39.38
37170;BME280;23062;13.952;100.608;2023-01-27T07:22:20;1009.27;;;29.61;39.65
37170;BME280;23062;13.952;100.608;2023-01-27T07:26:45;1009.22;;;29.56;39.86
37170;BME280;23062;13.952;100.608;2023-01-27T07:31:11;1009.13;;;29.55;40.00
37170;BME280;23062;13.952;100.608;2023-01-27T07:35:37;1009.10;;;29.63;39.68
37170;BME280;23062;13.952;100.608;2023-01-27T07:40:04;1008.99;;;29.66;40.03
37170;BME280;23062;13.952;100.608;2023-01-27T07:44:30;1008.99;;;29.69;39.55
37170;BME280;23062;13.952;100.608;2023-01-27T07:48:55;1008.99;;;29.81;39.22
37170;BME280;23062;13.952;100.608;2023-01-27T07:53:21;1008.90;;;29.77;39.42
37170;BME280;23062;13.952;100.608;2023-01-27T07:57:45;1008.85;;;29.72;39.55
37170;BME280;23062;13.952;100.608;2023-01-27T08:02:14;1008.78;;;29.78;38.79
37170;BME280;23062;13.952;100.608;2023-01-27T08:06:39;1008.80;;;29.84;37.36
37170;BME280;23062;13.952;100.608;2023-01-27T08:11:09;1008.82;;;29.89;37.70
37170;BME280;23062;13.952;100.608;2023-01-27T08:15:35;1008.79;;;29.82;37.76
37170;BME280;23062;13.952;100.608;2023-01-27T08:20:00;1008.78;;;29.88;37.28
37170;BME280;23062;13.952;100.608;2023-01-27T08:24:27;1008.73;;;29.84;37.49
37170;BME280;23062;13.952;100.608;2023-01-27T08:28:53;1008.73;;;29.83;37.70
37170;BME280;23062;13.952;100.608;2023-01-27T08:33:23;1008.76;;;29.82;37.76
37170;BME280;23062;13.952;100.608;2023-01-27T08:37:48;1008.72;;;29.81;37.77
37170;BME280;23062;13.952;100.608;2023-01-27T08:42:14;1008.76;;;29.78;37.96
37170;BME280;23062;13.952;100.608;2023-01-27T08:46:39;1008.76;;;29.75;38.30
37170;BME280;23062;13.952;100.608;2023-01-27T08:51:05;1008.73;;;29.73;38.51
37170;BME280;23062;13.952;100.608;2023-01-27T08:55:32;1008.78;;;29.75;38.53
37170;BME280;23062;13.952;100.608;2023-01-27T08:59:58;1008.76;;;29.72;38.65
37170;BME280;23062;13.952;100.608;2023-01-27T09:04:23;1008.76;;;29.72;38.63
37170;BME280;23062;13.952;100.608;2023-01-27T09:08:48;1008.75;;;29.73;38.84
37170;BME280;23062;13.952;100.608;2023-01-27T09:13:15;1008.76;;;29.70;39.07
37170;BME280;23062;13.952;100.608;2023-01-27T09:17:41;1008.80;;;29.70;39.31
37170;BME280;23062;13.952;100.608;2023-01-27T09:22:10;1008.82;;;29.74;38.87
37170;BME280;23062;13.952;100.608;2023-01-27T09:26:38;1008.85;;;29.70;39.07
37170;BME280;23062;13.952;100.608;2023-01-27T09:31:04;1008.87;;;29.71;39.19
37170;BME280;23062;13.952;100.608;2023-01-27T09:35:37;1008.89;;;29.70;40.13
37170;BME280;23062;13.952;100.608;2023-01-27T09:40:27;1008.93;;;29.70;40.49
37170;BME280;23062;13.952;100.608;2023-01-27T09:45:13;1008.95;;;29.70;40.54
37170;BME280;23062;13.952;100.608;2023-01-27T09:59:20;1009.08;;;29.71;39.97
37170;BME280;23062;13.952;100.608;2023-01-27T10:08:47;1009.14;;;29.69;39.40
37170;BME280;23062;13.952;100.608;2023-01-27T10:13:15;1009.21;;;29.70;39.99
37170;BME280;23062;13.952;100.608;2023-01-27T10:27:20;1009.32;;;29.67;39.81
37170;BME280;23062;13.952;100.608;2023-01-27T10:32:06;1009.35;;;29.70;39.92
37170;BME280;23062;13.952;100.608;2023-01-27T10:36:45;1009.41;;;29.67;40.07
37170;BME280;23062;13.952;100.608;2023-01-27T10:41:23;1009.53;;;29.63;39.98
37170;BME280;23062;13.952;100.608;2023-01-27T10:46:05;1009.56;;;29.67;39.69
37170;BME280;23062;13.952;100.608;2023-01-27T10:50:33;1009.59;;;29.67;39.98
37170;BME280;23062;13.952;100.608;2023-01-27T10:55:28;1009.61;;;29.65;39.98
37170;BME280;23062;13.952;100.608;2023-01-27T11:00:02;1009.70;;;29.64;39.68
37170;BME280;23062;13.952;100.608;2023-01-27T11:18:47;1010.00;;;29.63;40.22
37170;BME280;23062;13.952;100.608;2023-01-27T11:23:33;1010.03;;;29.60;40.32
37170;BME280;23062;13.952;100.608;2023-01-27T11:33:02;1010.16;;;29.55;39.43
37170;BME280;23062;13.952;100.608;2023-01-27T11:37:38;1010.22;;;29.48;38.86
37170;BME280;23062;13.952;100.608;2023-01-27T11:42:01;1010.25;;;29.44;38.79
37170;BME280;23062;13.952;100.608;2023-01-27T11:46:25;1010.33;;;29.42;39.05
37170;BME280;23062;13.952;100.608;2023-01-27T11:50:52;1010.34;;;29.45;39.06
37170;BME280;23062;13.952;100.608;2023-01-27T11:55:19;1010.40;;;29.41;39.17
37170;BME280;23062;13.952;100.608;2023-01-27T11:59:45;1010.39;;;29.35;39.15
37170;BME280;23062;13.952;100.608;2023-01-27T12:13:59;1010.61;;;29.31;39.58
37170;BME280;23062;13.952;100.608;2023-01-27T12:18:25;1010.73;;;29.28;39.74
37170;BME280;23062;13.952;100.608;2023-01-27T12:22:52;1010.75;;;29.24;39.95
37170;BME280;23062;13.952;100.608;2023-01-27T12:27:20;1010.87;;;29.24;39.96
37170;BME280;23062;13.952;100.608;2023-01-27T12:31:49;1010.91;;;29.19;40.34
37170;BME280;23062;13.952;100.608;2023-01-27T12:36:19;1011.08;;;29.15;40.12
37170;BME280;23062;13.952;100.608;2023-01-27T12:40:46;1011.10;;;29.16;39.88
37170;BME280;23062;13.952;100.608;2023-01-27T12:45:23;1011.19;;;29.16;40.41
37170;BME280;23062;13.952;100.608;2023-01-27T12:49:49;1011.33;;;29.12;40.69
37170;BME280;23062;13.952;100.608;2023-01-27T12:54:28;1011.44;;;29.18;40.77
37170;BME280;23062;13.952;100.608;2023-01-27T12:58:57;1011.59;;;29.25;40.89
37170;BME280;23062;13.952;100.608;2023-01-27T13:03:25;1011.67;;;29.37;40.69
37170;BME280;23062;13.952;100.608;2023-01-27T13:07:52;1011.74;;;29.38;40.85
37170;BME280;23062;13.952;100.608;2023-01-27T13:16:51;1011.96;;;29.43;41.03
37170;BME280;23062;13.952;100.608;2023-01-27T13:21:19;1011.96;;;29.43;41.25
37170;BME280;23062;13.952;100.608;2023-01-27T13:25:51;1012.08;;;29.43;41.41
37170;BME280;23062;13.952;100.608;2023-01-27T13:30:31;1012.18;;;29.43;41.55
37170;BME280;23062;13.952;100.608;2023-01-27T13:40:04;1012.27;;;29.43;41.85
37170;BME280;23062;13.952;100.608;2023-01-27T13:44:44;1012.34;;;29.42;41.97
37170;BME280;23062;13.952;100.608;2023-01-27T13:49:20;1012.32;;;29.42;42.11
37170;BME280;23062;13.952;100.608;2023-01-27T13:53:40;1012.35;;;29.42;42.25
37170;BME280;23062;13.952;100.608;2023-01-27T13:58:18;1012.39;;;29.40;42.38
37170;BME280;23062;13.952;100.608;2023-01-27T14:12:34;1012.43;;;29.40;42.86
37170;BME280;23062;13.952;100.608;2023-01-27T14:26:44;1012.42;;;29.38;43.28
37170;BME280;23062;13.952;100.608;2023-01-27T14:31:16;1012.44;;;29.38;43.39
37170;BME280;23062;13.952;100.608;2023-01-27T14:35:54;1012.49;;;29.37;43.51
37170;BME280;23062;13.952;100.608;2023-01-27T14:40:26;1012.53;;;29.37;43.57
37170;BME280;23062;13.952;100.608;2023-01-27T14:44:58;1012.48;;;29.36;43.71
37170;BME280;23062;13.952;100.608;2023-01-27T14:49:47;1012.45;;;29.36;43.83
37170;BME280;23062;13.952;100.608;2023-01-27T15:08:40;1012.39;;;29.34;44.11
37170;BME280;23062;13.952;100.608;2023-01-27T15:13:22;1012.39;;;29.33;44.25
37170;BME280;23062;13.952;100.608;2023-01-27T15:26:54;1012.27;;;29.31;44.45
37170;BME280;23062;13.952;100.608;2023-01-27T15:31:24;1012.26;;;29.30;44.56
37170;BME280;23062;13.952;100.608;2023-01-27T15:35:49;1012.20;;;29.29;44.57
37170;BME280;23062;13.952;100.608;2023-01-27T15:40:16;1012.13;;;29.29;44.59
37170;BME280;23062;13.952;100.608;2023-01-27T15:45:01;1012.09;;;29.28;44.74
37170;BME280;23062;13.952;100.608;2023-01-27T15:49:29;1012.07;;;29.28;44.69
37170;BME280;23062;13.952;100.608;2023-01-27T15:53:58;1012.01;;;29.27;44.72
37170;BME280;23062;13.952;100.608;2023-01-27T15:58:49;1011.98;;;29.26;44.73
37170;BME280;23062;13.952;100.608;2023-01-27T16:03:24;1011.95;;;29.26;44.79
37170;BME280;23062;13.952;100.608;2023-01-27T16:07:46;1011.92;;;29.26;44.83
37170;BME280;23062;13.952;100.608;2023-01-27T16:12:42;1011.94;;;29.25;44.89
37170;BME280;23062;13.952;100.608;2023-01-27T16:17:23;1011.88;;;29.25;44.86
37170;BME280;23062;13.952;100.608;2023-01-27T16:21:56;1011.83;;;29.24;44.90
37170;BME280;23062;13.952;100.608;2023-01-27T16:26:39;1011.77;;;29.24;45.10
37170;BME280;23062;13.952;100.608;2023-01-27T16:31:04;1011.71;;;29.23;45.11
37170;BME280;23062;13.952;100.608;2023-01-27T16:35:35;1011.64;;;29.22;45.24
37170;BME280;23062;13.952;100.608;2023-01-27T16:40:15;1011.62;;;29.21;45.22
37170;BME280;23062;13.952;100.608;2023-01-27T16:44:44;1011.60;;;29.21;45.23
37170;BME280;23062;13.952;100.608;2023-01-27T16:49:23;1011.54;;;29.21;45.42
37170;BME280;23062;13.952;100.608;2023-01-27T16:53:54;1011.51;;;29.20;45.36
37170;BME280;23062;13.952;100.608;2023-01-27T16:58:20;1011.56;;;29.19;45.29
37170;BME280;23062;13.952;100.608;2023-01-27T17:02:47;1011.51;;;29.19;45.37
37170;BME280;23062;13.952;100.608;2023-01-27T17:07:16;1011.50;;;29.18;45.40
37170;BME280;23062;13.952;100.608;2023-01-27T17:11:43;1011.47;;;29.17;45.35
37170;BME280;23062;13.952;100.608;2023-01-27T17:16:16;1011.48;;;29.16;45.42
37170;BME280;23062;13.952;100.608;2023-01-27T17:20:41;1011.52;;;29.16;45.39
37170;BME280;23062;13.952;100.608;2023-01-27T17:29:50;1011.49;;;29.15;45.18
37170;BME280;23062;13.952;100.608;2023-01-27T17:34:19;1011.46;;;29.15;45.36
37170;BME280;23062;13.952;100.608;2023-01-27T17:38:50;1011.42;;;29.14;45.22
37170;BME280;23062;13.952;100.608;2023-01-27T17:43:29;1011.42;;;29.14;45.42
37170;BME280;23062;13.952;100.608;2023-01-27T17:47:58;1011.34;;;29.14;45.40
37170;BME280;23062;13.952;100.608;2023-01-27T17:52:25;1011.31;;;29.13;45.49
37170;BME280;23062;13.952;100.608;2023-01-27T17:56:58;1011.28;;;29.12;45.31
37170;BME280;23062;13.952;100.608;2023-01-27T18:01:23;1011.25;;;29.11;45.50
37170;BME280;23062;13.952;100.608;2023-01-27T18:05:49;1011.25;;;29.10;45.40
37170;BME280;23062;13.952;100.608;2023-01-27T18:10:27;1011.20;;;29.09;45.58
37170;BME280;23062;13.952;100.608;2023-01-27T18:14:52;1011.17;;;29.08;45.47
37170;BME280;23062;13.952;100.608;2023-01-27T18:19:23;1011.14;;;29.08;45.34
37170;BME280;23062;13.952;100.608;2023-01-27T18:23:50;1011.08;;;29.07;45.27
37170;BME280;23062;13.952;100.608;2023-01-27T18:28:17;1011.06;;;29.06;45.35
37170;BME280;23062;13.952;100.608;2023-01-27T18:32:44;1011.01;;;29.05;45.49
37170;BME280;23062;13.952;100.608;2023-01-27T18:37:28;1011.06;;;29.05;45.64
37170;BME280;23062;13.952;100.608;2023-01-27T18:41:53;1010.98;;;29.05;45.44
37170;BME280;23062;13.952;100.608;2023-01-27T18:46:18;1010.92;;;29.04;45.77
37170;BME280;23062;13.952;100.608;2023-01-27T18:50:46;1010.82;;;29.02;45.61
37170;BME280;23062;13.952;100.608;2023-01-27T18:55:23;1010.82;;;29.02;45.71
37170;BME280;23062;13.952;100.608;2023-01-27T18:59:49;1010.78;;;29.02;45.79
37170;BME280;23062;13.952;100.608;2023-01-27T19:04:16;1010.75;;;29.01;45.66
37170;BME280;23062;13.952;100.608;2023-01-27T19:08:41;1010.67;;;28.99;45.80
37170;BME280;23062;13.952;100.608;2023-01-27T19:13:09;1010.65;;;28.99;45.86
37170;BME280;23062;13.952;100.608;2023-01-27T19:17:36;1010.64;;;28.97;45.88
37170;BME280;23062;13.952;100.608;2023-01-27T19:22:01;1010.60;;;28.96;45.94
37170;BME280;23062;13.952;100.608;2023-01-27T19:26:26;1010.61;;;28.95;45.80
37170;BME280;23062;13.952;100.608;2023-01-27T19:30:52;1010.60;;;28.94;45.90
37170;BME280;23062;13.952;100.608;2023-01-27T19:35:17;1010.65;;;28.94;45.95
37170;BME280;23062;13.952;100.608;2023-01-27T19:39:42;1010.72;;;28.94;45.95
37170;BME280;23062;13.952;100.608;2023-01-27T19:44:07;1010.66;;;28.93;45.94
37170;BME280;23062;13.952;100.608;2023-01-27T19:48:33;1010.66;;;28.93;45.96
37170;BME280;23062;13.952;100.608;2023-01-27T19:52:58;1010.64;;;28.91;46.03
37170;BME280;23062;13.952;100.608;2023-01-27T19:57:24;1010.66;;;28.91;46.09
37170;BME280;23062;13.952;100.608;2023-01-27T20:01:49;1010.59;;;28.90;46.16
37170;BME280;23062;13.952;100.608;2023-01-27T20:06:22;1010.62;;;28.88;46.24
37170;BME280;23062;13.952;100.608;2023-01-27T20:10:47;1010.63;;;28.88;46.19
37170;BME280;23062;13.952;100.608;2023-01-27T20:15:16;1010.61;;;28.87;46.31
37170;BME280;23062;13.952;100.608;2023-01-27T20:19:41;1010.61;;;28.86;46.31
37170;BME280;23062;13.952;100.608;2023-01-27T20:24:06;1010.59;;;28.85;46.31
37170;BME280;23062;13.952;100.608;2023-01-27T20:28:36;1010.63;;;28.85;46.35
37170;BME280;23062;13.952;100.608;2023-01-27T20:33:01;1010.62;;;28.84;46.41
37170;BME280;23062;13.952;100.608;2023-01-27T20:37:26;1010.60;;;28.82;46.43
37170;BME280;23062;13.952;100.608;2023-01-27T20:41:51;1010.61;;;28.82;46.46
37170;BME280;23062;13.952;100.608;2023-01-27T20:46:17;1010.67;;;28.82;46.50
37170;BME280;23062;13.952;100.608;2023-01-27T20:50:43;1010.70;;;28.82;46.49
37170;BME280;23062;13.952;100.608;2023-01-27T20:55:08;1010.80;;;28.81;46.52
37170;BME280;23062;13.952;100.608;2023-01-27T20:59:35;1010.86;;;28.80;46.58
37170;BME280;23062;13.952;100.608;2023-01-27T21:04:01;1010.90;;;28.79;46.57
37170;BME280;23062;13.952;100.608;2023-01-27T21:08:27;1010.98;;;28.78;46.57
37170;BME280;23062;13.952;100.608;2023-01-27T21:12:52;1011.07;;;28.76;46.59
37170;BME280;23062;13.952;100.608;2023-01-27T21:17:17;1011.15;;;28.76;46.68
37170;BME280;23062;13.952;100.608;2023-01-27T21:21:42;1011.27;;;28.75;46.59
37170;BME280;23062;13.952;100.608;2023-01-27T21:26:09;1011.34;;;28.74;46.61
37170;BME280;23062;13.952;100.608;2023-01-27T21:30:43;1011.42;;;28.74;46.69
37170;BME280;23062;13.952;100.608;2023-01-27T21:35:09;1011.47;;;28.63;46.37
37170;BME280;23062;13.952;100.608;2023-01-27T21:39:38;1011.55;;;28.50;46.58
37170;BME280;23062;13.952;100.608;2023-01-27T21:49:04;1011.57;;;28.26;49.79
37170;BME280;23062;13.952;100.608;2023-01-27T21:53:28;1011.63;;;28.19;50.52
37170;BME280;23062;13.952;100.608;2023-01-27T21:57:55;1011.70;;;27.86;49.58
37170;BME280;23062;13.952;100.608;2023-01-27T22:02:22;1011.82;;;27.70;49.87
37170;BME280;23062;13.952;100.608;2023-01-27T22:06:54;1011.87;;;27.69;49.54
37170;BME280;23062;13.952;100.608;2023-01-27T22:11:22;1011.89;;;27.66;49.81
37170;BME280;23062;13.952;100.608;2023-01-27T22:15:50;1011.96;;;27.69;48.97
37170;BME280;23062;13.952;100.608;2023-01-27T22:20:16;1012.05;;;27.72;50.07
37170;BME280;23062;13.952;100.608;2023-01-27T22:24:41;1012.11;;;27.61;49.08
37170;BME280;23062;13.952;100.608;2023-01-27T22:29:10;1012.11;;;27.66;49.23
37170;BME280;23062;13.952;100.608;2023-01-27T22:33:36;1012.11;;;27.53;48.78
37170;BME280;23062;13.952;100.608;2023-01-27T22:38:08;1012.16;;;27.54;49.12
37170;BME280;23062;13.952;100.608;2023-01-27T22:42:33;1012.21;;;27.34;48.76
37170;BME280;23062;13.952;100.608;2023-01-27T22:46:59;1012.26;;;27.37;48.04
37170;BME280;23062;13.952;100.608;2023-01-27T22:51:24;1012.30;;;27.20;48.09
37170;BME280;23062;13.952;100.608;2023-01-27T22:55:59;1012.33;;;27.27;48.66
37170;BME280;23062;13.952;100.608;2023-01-27T23:00:24;1012.46;;;27.16;47.89
37170;BME280;23062;13.952;100.608;2023-01-27T23:04:49;1012.53;;;27.33;47.97
37170;BME280;23062;13.952;100.608;2023-01-27T23:09:17;1012.54;;;27.34;47.85
37170;BME280;23062;13.952;100.608;2023-01-27T23:13:42;1012.60;;;27.21;47.36
37170;BME280;23062;13.952;100.608;2023-01-27T23:18:14;1012.60;;;27.07;47.89
37170;BME280;23062;13.952;100.608;2023-01-27T23:22:39;1012.71;;;27.22;48.20
37170;BME280;23062;13.952;100.608;2023-01-27T23:27:04;1012.75;;;26.99;48.13
37170;BME280;23062;13.952;100.608;2023-01-27T23:31:29;1012.74;;;26.72;47.84
37170;BME280;23062;13.952;100.608;2023-01-27T23:35:57;1012.69;;;26.77;47.60
37170;BME280;23062;13.952;100.608;2023-01-27T23:40:22;1012.80;;;26.91;47.56
37170;BME280;23062;13.952;100.608;2023-01-27T23:44:47;1012.95;;;26.90;47.12
37170;BME280;23062;13.952;100.608;2023-01-27T23:49:12;1013.05;;;26.92;47.47
37170;BME280;23062;13.952;100.608;2023-01-27T23:53:37;1013.11;;;27.09;47.88
37170;BME280;23062;13.952;100.608;2023-01-27T23:58:02;1013.19;;;26.85;48.93
